createdAt,value
2022-11-03T00:07:06.747Z,88.35861
2022-11-03T00:17:08.511Z,88.74229
2022-11-03T00:27:09.947Z,88.79933
2022-11-03T00:37:11.643Z,89.14433
2022-11-03T00:47:13.036Z,89.16472
2022-11-03T00:57:14.409Z,88.54299
2022-11-03T01:07:15.776Z,87.85875
2022-11-03T01:17:16.910Z,85.4112
2022-11-03T01:27:18.065Z,82.09159
2022-11-03T01:37:19.225Z,80.95788
2022-11-03T01:47:20.549Z,80.49914
2022-11-03T01:57:21.710Z,80.32581
2022-11-03T02:07:22.851Z,78.88849
2022-11-03T02:17:23.980Z,78.8602
2022-11-03T02:27:25.137Z,78.28587
2022-11-03T02:37:26.282Z,79.86021
2022-11-03T02:47:27.490Z,80.57025
2022-11-03T02:57:28.680Z,80.7329
2022-11-03T03:07:29.812Z,81.04261
2022-11-03T03:17:31.149Z,82.25064
2022-11-03T03:27:32.400Z,82.48209
2022-11-03T03:37:33.578Z,82.68625
2022-11-03T03:47:34.729Z,82.33338
2022-11-03T03:57:35.839Z,82.59372
2022-11-03T04:07:42.460Z,81.91489
2022-11-03T04:17:45.160Z,81.95476
2022-11-03T04:27:46.431Z,82.19989
2022-11-03T04:37:48.051Z,81.85758
2022-11-03T04:47:49.641Z,82.05504
2022-11-03T04:57:51.046Z,82.1111
2022-11-03T05:07:52.328Z,82.14008
2022-11-03T05:17:53.472Z,82.90688
2022-11-03T05:27:54.611Z,84.05478
2022-11-03T05:37:55.995Z,84.98107
2022-11-03T05:47:57.143Z,86.06781
2022-11-03T05:57:58.271Z,87.4801
2022-11-03T06:07:59.412Z,88.49065
2022-11-03T06:18:00.852Z,89.24138
2022-11-03T06:28:02.029Z,89.65957
2022-11-03T06:38:03.782Z,90.27931
2022-11-03T06:48:05.479Z,90.61181
2022-11-03T06:58:07.199Z,91.34903
2022-11-03T07:08:08.880Z,92.0496
2022-11-03T07:18:10.463Z,92.49417
2022-11-03T07:28:12.125Z,93.06825
2022-11-03T07:38:13.283Z,93.77762
2022-11-03T07:48:14.584Z,94.63796
2022-11-03T07:58:15.983Z,95.02494
2022-11-03T08:08:17.138Z,95.40745
2022-11-03T08:18:18.254Z,95.36
2022-11-03T08:28:19.431Z,95.51707
2022-11-03T08:38:20.850Z,95.2414
2022-11-03T08:48:22.055Z,95.54388
2022-11-03T08:58:23.178Z,95.11458
2022-11-03T09:18:55.521Z,94.54609
2022-11-03T09:28:56.655Z,94.68153
2022-11-03T09:38:57.824Z,94.10868
2022-11-03T09:48:58.956Z,93.70384
2022-11-03T09:59:00.158Z,94.59169
2022-11-03T10:09:01.606Z,95.39087
2022-11-03T10:19:03.791Z,96.43399
2022-11-03T10:29:05.570Z,96.59671
2022-11-03T10:39:07.312Z,95.17448
2022-11-03T10:49:09.011Z,95.31242
2022-11-03T10:59:10.616Z,94.80941
2022-11-03T11:09:12.098Z,93.9793
2022-11-03T11:19:13.206Z,92.66575
2022-11-03T11:29:14.706Z,92.24343
2022-11-03T11:39:15.870Z,91.62008
2022-11-03T11:49:17.026Z,91.57706
2022-11-03T11:59:24.036Z,90.75501
2022-11-03T12:09:26.287Z,91.24117
2022-11-03T12:19:27.681Z,91.70776
2022-11-03T12:29:28.831Z,90.94629
2022-11-03T12:39:30.023Z,91.23531
2022-11-03T12:49:31.385Z,90.93137
2022-11-03T12:59:32.559Z,91.43715
2022-11-03T13:09:33.837Z,90.73625
2022-11-03T13:19:35.044Z,90.41349
2022-11-03T13:29:41.323Z,90.56792
2022-11-03T13:39:42.511Z,89.34529
2022-11-03T13:50:14.045Z,87.44258
2022-11-03T14:00:15.931Z,85.92505
2022-11-03T14:10:17.056Z,87.23529
2022-11-03T14:20:18.232Z,88.62153
2022-11-03T14:30:19.465Z,89.59083
2022-11-03T14:40:20.858Z,89.78304
2022-11-03T14:50:22.040Z,90.46266
2022-11-03T15:00:23.227Z,91.23308
2022-11-03T15:10:24.419Z,92.02118
2022-11-03T15:20:25.543Z,92.69345
2022-11-03T15:30:26.664Z,93.35311
2022-11-03T15:40:27.924Z,93.12893
2022-11-03T15:50:29.043Z,94.09659
2022-11-03T16:00:30.303Z,94.80837
2022-11-03T16:10:31.594Z,94.98631
2022-11-03T16:20:32.741Z,94.93451
2022-11-03T16:30:33.872Z,95.26972
2022-11-03T16:40:35.054Z,94.97247
2022-11-03T16:50:39.082Z,94.3128
2022-11-03T17:00:42.749Z,94.30749
2022-11-03T17:10:43.953Z,92.4461
2022-11-03T17:20:45.097Z,92.79405
2022-11-03T17:30:46.208Z,92.51007
2022-11-03T17:40:47.353Z,91.97461
2022-11-03T17:50:48.518Z,91.22625
2022-11-03T18:00:49.717Z,91.35222
2022-11-03T18:10:51.154Z,92.07793
2022-11-03T18:20:53.565Z,92.78177
2022-11-03T18:30:55.052Z,94.73713
2022-11-03T18:40:56.261Z,95.51419
2022-11-03T18:50:57.468Z,94.90363
2022-11-03T19:00:58.666Z,94.18536
2022-11-03T19:10:59.811Z,95.22148
2022-11-03T19:21:01.254Z,96.57091
2022-11-03T19:31:03.025Z,95.68801
2022-11-03T19:41:04.831Z,94.30343
2022-11-03T19:51:06.577Z,96.01275
2022-11-03T20:01:08.924Z,97.34111
2022-11-03T20:11:10.694Z,97.85001
2022-11-03T20:21:12.007Z,98.31419
2022-11-03T20:31:13.123Z,97.93869
2022-11-03T20:41:14.329Z,98.01859
2022-11-03T20:51:15.516Z,98.32272
2022-11-03T21:01:16.795Z,98.93301
2022-11-03T21:11:18.096Z,99.14895
2022-11-03T21:21:21.218Z,99.28168
2022-11-03T21:31:22.921Z,99.77588
2022-11-03T21:41:24.043Z,98.96266
2022-11-03T21:51:25.238Z,98.05063
2022-11-03T22:01:26.582Z,97.72577
2022-11-03T22:11:27.839Z,95.47963
2022-11-03T22:21:28.961Z,94.14035
2022-11-03T22:31:30.143Z,92.50855
2022-11-03T22:41:31.542Z,94.33992
2022-11-03T22:51:32.699Z,95.85988
2022-11-03T23:01:34.077Z,97.52076
2022-11-03T23:11:35.370Z,98.8307
2022-11-03T23:21:36.522Z,99.73804
2022-11-03T23:31:37.740Z,99.83318
2022-11-03T23:41:38.974Z,99.86902
2022-11-03T23:51:40.124Z,99.32878
